sensor_id;sensor_type;location;lat;lon;timestamp;P1;durP1;ratioP1;P2;durP2;ratioP2
11957;SDS011;6039;52.576;13.348;2023-06-14T00:02:23;2.80;;;2.03;;
11957;SDS011;6039;52.576;13.348;2023-06-14T00:07:33;2.20;;;2.00;;
11957;SDS011;6039;52.576;13.348;2023-06-14T00:12:40;2.30;;;2.00;;
11957;SDS011;6039;52.576;13.348;2023-06-14T00:17:44;2.70;;;2.20;;
11957;SDS011;6039;52.576;13.348;2023-06-14T00:22:48;2.93;;;2.30;;
11957;SDS011;6039;52.576;13.348;2023-06-14T00:27:56;4.13;;;2.40;;
11957;SDS011;6039;52.576;13.348;2023-06-14T00:33:01;2.17;;;1.97;;
11957;SDS011;6039;52.576;13.348;2023-06-14T00:38:05;2.23;;;1.83;;
11957;SDS011;6039;52.576;13.348;2023-06-14T00:43:11;2.50;;;2.10;;
11957;SDS011;6039;52.576;13.348;2023-06-14T00:48:15;3.07;;;2.20;;
11957;SDS011;6039;52.576;13.348;2023-06-14T00:53:19;2.67;;;2.27;;
11957;SDS011;6039;52.576;13.348;2023-06-14T00:58:27;2.53;;;2.07;;
11957;SDS011;6039;52.576;13.348;2023-06-14T01:03:32;4.23;;;2.47;;
11957;SDS011;6039;52.576;13.348;2023-06-14T01:08:40;2.87;;;2.27;;
11957;SDS011;6039;52.576;13.348;2023-06-14T01:13:54;4.17;;;2.43;;
11957;SDS011;6039;52.576;13.348;2023-06-14T01:18:59;3.80;;;2.57;;
11957;SDS011;6039;52.576;13.348;2023-06-14T01:24:08;2.60;;;2.10;;
11957;SDS011;6039;52.576;13.348;2023-06-14T01:29:12;3.53;;;2.60;;
11957;SDS011;6039;52.576;13.348;2023-06-14T01:34:17;3.70;;;2.40;;
11957;SDS011;6039;52.576;13.348;2023-06-14T01:39:24;2.73;;;2.17;;
11957;SDS011;6039;52.576;13.348;2023-06-14T01:44:28;4.47;;;2.83;;
11957;SDS011;6039;52.576;13.348;2023-06-14T01:49:33;3.13;;;2.40;;
11957;SDS011;6039;52.576;13.348;2023-06-14T01:54:40;3.60;;;2.70;;
11957;SDS011;6039;52.576;13.348;2023-06-14T01:59:44;3.43;;;2.70;;
11957;SDS011;6039;52.576;13.348;2023-06-14T02:04:49;3.67;;;2.80;;
11957;SDS011;6039;52.576;13.348;2023-06-14T02:10:00;4.70;;;3.10;;
11957;SDS011;6039;52.576;13.348;2023-06-14T02:15:04;4.30;;;3.00;;
11957;SDS011;6039;52.576;13.348;2023-06-14T02:20:09;5.20;;;3.30;;
11957;SDS011;6039;52.576;13.348;2023-06-14T02:25:17;3.60;;;2.83;;
11957;SDS011;6039;52.576;13.348;2023-06-14T02:30:21;3.57;;;3.00;;
11957;SDS011;6039;52.576;13.348;2023-06-14T02:35:25;4.07;;;3.07;;
11957;SDS011;6039;52.576;13.348;2023-06-14T02:40:32;5.40;;;3.30;;
11957;SDS011;6039;52.576;13.348;2023-06-14T02:45:36;4.80;;;3.07;;
11957;SDS011;6039;52.576;13.348;2023-06-14T02:50:40;4.40;;;3.23;;
11957;SDS011;6039;52.576;13.348;2023-06-14T02:55:47;5.47;;;3.37;;
11957;SDS011;6039;52.576;13.348;2023-06-14T03:00:52;4.97;;;3.13;;
11957;SDS011;6039;52.576;13.348;2023-06-14T03:05:56;3.60;;;3.27;;
11957;SDS011;6039;52.576;13.348;2023-06-14T03:11:07;4.50;;;3.40;;
11957;SDS011;6039;52.576;13.348;2023-06-14T03:16:11;4.07;;;3.30;;
11957;SDS011;6039;52.576;13.348;2023-06-14T03:21:17;3.50;;;3.20;;
11957;SDS011;6039;52.576;13.348;2023-06-14T03:26:24;4.23;;;3.23;;
11957;SDS011;6039;52.576;13.348;2023-06-14T03:31:28;5.40;;;3.30;;
11957;SDS011;6039;52.576;13.348;2023-06-14T03:36:33;4.80;;;3.20;;
11957;SDS011;6039;52.576;13.348;2023-06-14T03:41:40;6.00;;;3.63;;
11957;SDS011;6039;52.576;13.348;2023-06-14T03:46:44;6.23;;;3.90;;
11957;SDS011;6039;52.576;13.348;2023-06-14T03:51:48;3.87;;;3.30;;
11957;SDS011;6039;52.576;13.348;2023-06-14T03:56:55;4.63;;;3.67;;
11957;SDS011;6039;52.576;13.348;2023-06-14T04:01:59;4.07;;;3.47;;
11957;SDS011;6039;52.576;13.348;2023-06-14T04:07:03;4.73;;;3.87;;
11957;SDS011;6039;52.576;13.348;2023-06-14T04:12:11;4.63;;;3.83;;
11957;SDS011;6039;52.576;13.348;2023-06-14T04:17:16;4.13;;;3.70;;
11957;SDS011;6039;52.576;13.348;2023-06-14T04:22:20;5.53;;;3.67;;
11957;SDS011;6039;52.576;13.348;2023-06-14T04:27:26;5.83;;;4.20;;
11957;SDS011;6039;52.576;13.348;2023-06-14T04:32:36;9.87;;;4.90;;
11957;SDS011;6039;52.576;13.348;2023-06-14T04:37:40;4.97;;;4.00;;
11957;SDS011;6039;52.576;13.348;2023-06-14T04:42:47;5.80;;;4.20;;
11957;SDS011;6039;52.576;13.348;2023-06-14T04:47:52;4.87;;;3.87;;
11957;SDS011;6039;52.576;13.348;2023-06-14T04:52:57;8.67;;;4.70;;
11957;SDS011;6039;52.576;13.348;2023-06-14T04:58:04;5.70;;;4.20;;
11957;SDS011;6039;52.576;13.348;2023-06-14T05:03:08;5.63;;;4.10;;
11957;SDS011;6039;52.576;13.348;2023-06-14T05:08:13;7.00;;;3.80;;
11957;SDS011;6039;52.576;13.348;2023-06-14T05:13:19;4.73;;;3.87;;
11957;SDS011;6039;52.576;13.348;2023-06-14T05:18:23;8.03;;;4.50;;
11957;SDS011;6039;52.576;13.348;2023-06-14T05:23:28;5.13;;;4.10;;
11957;SDS011;6039;52.576;13.348;2023-06-14T05:28:34;5.50;;;4.03;;
11957;SDS011;6039;52.576;13.348;2023-06-14T05:33:38;7.60;;;4.07;;
11957;SDS011;6039;52.576;13.348;2023-06-14T05:38:42;7.37;;;4.30;;
11957;SDS011;6039;52.576;13.348;2023-06-14T05:43:50;5.93;;;4.80;;
11957;SDS011;6039;52.576;13.348;2023-06-14T05:48:55;5.97;;;4.20;;
11957;SDS011;6039;52.576;13.348;2023-06-14T05:53:59;5.00;;;3.70;;
11957;SDS011;6039;52.576;13.348;2023-06-14T05:59:06;4.83;;;3.83;;
11957;SDS011;6039;52.576;13.348;2023-06-14T06:04:10;6.30;;;3.90;;
11957;SDS011;6039;52.576;13.348;2023-06-14T06:09:14;6.60;;;4.03;;
11957;SDS011;6039;52.576;13.348;2023-06-14T06:14:21;8.63;;;4.67;;
11957;SDS011;6039;52.576;13.348;2023-06-14T06:19:25;4.97;;;3.73;;
11957;SDS011;6039;52.576;13.348;2023-06-14T06:24:29;6.63;;;4.00;;
11957;SDS011;6039;52.576;13.348;2023-06-14T06:29:36;6.27;;;4.03;;
11957;SDS011;6039;52.576;13.348;2023-06-14T06:34:40;4.57;;;3.63;;
11957;SDS011;6039;52.576;13.348;2023-06-14T06:39:45;5.23;;;3.93;;
11957;SDS011;6039;52.576;13.348;2023-06-14T06:44:51;4.60;;;3.70;;
11957;SDS011;6039;52.576;13.348;2023-06-14T06:49:55;5.33;;;3.80;;
11957;SDS011;6039;52.576;13.348;2023-06-14T06:54:59;4.60;;;3.70;;
11957;SDS011;6039;52.576;13.348;2023-06-14T07:00:07;6.33;;;3.83;;
11957;SDS011;6039;52.576;13.348;2023-06-14T07:05:12;6.97;;;4.13;;
11957;SDS011;6039;52.576;13.348;2023-06-14T07:10:17;5.70;;;4.00;;
11957;SDS011;6039;52.576;13.348;2023-06-14T07:15:24;3.87;;;3.43;;
11957;SDS011;6039;52.576;13.348;2023-06-14T07:20:28;6.53;;;3.80;;
11957;SDS011;6039;52.576;13.348;2023-06-14T07:25:33;4.83;;;3.80;;
11957;SDS011;6039;52.576;13.348;2023-06-14T07:30:39;5.47;;;3.87;;
11957;SDS011;6039;52.576;13.348;2023-06-14T07:35:43;5.80;;;3.40;;
11957;SDS011;6039;52.576;13.348;2023-06-14T07:40:49;5.63;;;3.73;;
11957;SDS011;6039;52.576;13.348;2023-06-14T07:45:56;6.67;;;4.10;;
11957;SDS011;6039;52.576;13.348;2023-06-14T07:51:00;5.70;;;4.00;;
11957;SDS011;6039;52.576;13.348;2023-06-14T07:56:04;4.97;;;3.80;;
11957;SDS011;6039;52.576;13.348;2023-06-14T08:01:11;4.30;;;3.37;;
11957;SDS011;6039;52.576;13.348;2023-06-14T08:06:15;4.33;;;3.37;;
11957;SDS011;6039;52.576;13.348;2023-06-14T08:11:19;4.80;;;3.70;;
11957;SDS011;6039;52.576;13.348;2023-06-14T08:16:26;4.33;;;3.67;;
11957;SDS011;6039;52.576;13.348;2023-06-14T08:21:30;4.10;;;3.40;;
11957;SDS011;6039;52.576;13.348;2023-06-14T08:26:36;4.72;;;3.17;;
11957;SDS011;6039;52.576;13.348;2023-06-14T08:31:43;4.20;;;3.33;;
11957;SDS011;6039;52.576;13.348;2023-06-14T08:36:47;3.45;;;3.10;;
11957;SDS011;6039;52.576;13.348;2023-06-14T08:41:51;4.10;;;3.38;;
11957;SDS011;6039;52.576;13.348;2023-06-14T08:46:58;4.00;;;3.20;;
11957;SDS011;6039;52.576;13.348;2023-06-14T08:52:04;2.92;;;2.70;;
11957;SDS011;6039;52.576;13.348;2023-06-14T08:57:11;4.75;;;2.95;;
11957;SDS011;6039;52.576;13.348;2023-06-14T09:02:18;3.85;;;3.10;;
11957;SDS011;6039;52.576;13.348;2023-06-14T09:07:22;4.30;;;3.13;;
11957;SDS011;6039;52.576;13.348;2023-06-14T09:12:26;3.40;;;2.95;;
11957;SDS011;6039;52.576;13.348;2023-06-14T09:17:32;4.17;;;3.33;;
11957;SDS011;6039;52.576;13.348;2023-06-14T09:22:37;5.00;;;3.63;;
11957;SDS011;6039;52.576;13.348;2023-06-14T09:27:42;5.37;;;2.90;;
11957;SDS011;6039;52.576;13.348;2023-06-14T09:32:48;8.23;;;2.93;;
11957;SDS011;6039;52.576;13.348;2023-06-14T09:37:53;6.33;;;3.00;;
11957;SDS011;6039;52.576;13.348;2023-06-14T09:42:58;3.70;;;2.80;;
11957;SDS011;6039;52.576;13.348;2023-06-14T09:48:06;3.40;;;2.90;;
11957;SDS011;6039;52.576;13.348;2023-06-14T09:53:11;3.30;;;3.00;;
11957;SDS011;6039;52.576;13.348;2023-06-14T09:58:15;5.07;;;2.87;;
11957;SDS011;6039;52.576;13.348;2023-06-14T10:03:24;8.77;;;3.30;;
11957;SDS011;6039;52.576;13.348;2023-06-14T10:08:29;4.07;;;2.70;;
11957;SDS011;6039;52.576;13.348;2023-06-14T10:13:35;4.13;;;3.03;;
11957;SDS011;6039;52.576;13.348;2023-06-14T10:18:45;4.33;;;3.20;;
11957;SDS011;6039;52.576;13.348;2023-06-14T10:23:53;5.67;;;3.10;;
11957;SDS011;6039;52.576;13.348;2023-06-14T10:29:00;6.13;;;3.43;;
11957;SDS011;6039;52.576;13.348;2023-06-14T10:34:12;4.50;;;3.00;;
11957;SDS011;6039;52.576;13.348;2023-06-14T10:39:24;3.50;;;3.20;;
11957;SDS011;6039;52.576;13.348;2023-06-14T10:44:31;4.57;;;3.23;;
11957;SDS011;6039;52.576;13.348;2023-06-14T10:49:40;3.60;;;3.00;;
11957;SDS011;6039;52.576;13.348;2023-06-14T10:55:01;3.67;;;2.97;;
11957;SDS011;6039;52.576;13.348;2023-06-14T11:00:10;6.05;;;4.82;;
11957;SDS011;6039;52.576;13.348;2023-06-14T11:05:20;4.97;;;3.05;;
11957;SDS011;6039;52.576;13.348;2023-06-14T11:10:31;5.63;;;2.95;;
11957;SDS011;6039;52.576;13.348;2023-06-14T11:15:43;3.85;;;3.20;;
11957;SDS011;6039;52.576;13.348;2023-06-14T11:20:50;3.55;;;2.85;;
11957;SDS011;6039;52.576;13.348;2023-06-14T11:25:54;3.72;;;2.95;;
11957;SDS011;6039;52.576;13.348;2023-06-14T11:31:01;5.10;;;3.10;;
11957;SDS011;6039;52.576;13.348;2023-06-14T11:36:11;2.95;;;2.60;;
11957;SDS011;6039;52.576;13.348;2023-06-14T11:41:15;4.22;;;2.40;;
11957;SDS011;6039;52.576;13.348;2023-06-14T11:46:20;4.68;;;2.70;;
11957;SDS011;6039;52.576;13.348;2023-06-14T11:51:27;3.45;;;2.75;;
11957;SDS011;6039;52.576;13.348;2023-06-14T11:56:31;3.83;;;2.72;;
11957;SDS011;6039;52.576;13.348;2023-06-14T12:01:36;3.95;;;2.60;;
11957;SDS011;6039;52.576;13.348;2023-06-14T12:06:46;3.15;;;2.53;;
11957;SDS011;6039;52.576;13.348;2023-06-14T12:11:59;4.90;;;3.03;;
11957;SDS011;6039;52.576;13.348;2023-06-14T12:17:04;3.50;;;3.00;;
11957;SDS011;6039;52.576;13.348;2023-06-14T12:22:12;6.53;;;2.80;;
11957;SDS011;6039;52.576;13.348;2023-06-14T12:27:16;4.35;;;3.00;;
11957;SDS011;6039;52.576;13.348;2023-06-14T12:32:20;3.50;;;2.80;;
11957;SDS011;6039;52.576;13.348;2023-06-14T12:37:27;3.78;;;2.78;;
11957;SDS011;6039;52.576;13.348;2023-06-14T12:42:31;3.65;;;2.58;;
11957;SDS011;6039;52.576;13.348;2023-06-14T12:47:35;4.13;;;2.85;;
11957;SDS011;6039;52.576;13.348;2023-06-14T12:52:42;3.47;;;2.80;;
11957;SDS011;6039;52.576;13.348;2023-06-14T12:57:46;3.03;;;2.58;;
11957;SDS011;6039;52.576;13.348;2023-06-14T13:02:51;3.80;;;2.60;;
11957;SDS011;6039;52.576;13.348;2023-06-14T13:07:58;4.10;;;2.55;;
11957;SDS011;6039;52.576;13.348;2023-06-14T13:13:02;3.05;;;2.55;;
11957;SDS011;6039;52.576;13.348;2023-06-14T13:18:07;3.10;;;2.70;;
11957;SDS011;6039;52.576;13.348;2023-06-14T13:23:15;3.30;;;2.40;;
11957;SDS011;6039;52.576;13.348;2023-06-14T13:28:20;3.08;;;2.50;;
11957;SDS011;6039;52.576;13.348;2023-06-14T13:33:24;3.10;;;2.80;;
11957;SDS011;6039;52.576;13.348;2023-06-14T13:38:30;3.85;;;2.90;;
11957;SDS011;6039;52.576;13.348;2023-06-14T13:43:34;3.67;;;2.50;;
11957;SDS011;6039;52.576;13.348;2023-06-14T13:48:38;3.33;;;2.58;;
11957;SDS011;6039;52.576;13.348;2023-06-14T13:53:45;4.70;;;2.30;;
11957;SDS011;6039;52.576;13.348;2023-06-14T13:58:50;2.65;;;2.08;;
11957;SDS011;6039;52.576;13.348;2023-06-14T14:03:54;5.07;;;2.38;;
11957;SDS011;6039;52.576;13.348;2023-06-14T14:09:01;3.30;;;2.50;;
11957;SDS011;6039;52.576;13.348;2023-06-14T14:14:05;4.65;;;2.83;;
11957;SDS011;6039;52.576;13.348;2023-06-14T14:19:10;3.63;;;2.67;;
11957;SDS011;6039;52.576;13.348;2023-06-14T14:24:16;3.28;;;2.67;;
11957;SDS011;6039;52.576;13.348;2023-06-14T14:29:20;5.20;;;2.90;;
11957;SDS011;6039;52.576;13.348;2023-06-14T14:34:24;3.00;;;2.40;;
11957;SDS011;6039;52.576;13.348;2023-06-14T14:39:31;3.35;;;2.45;;
11957;SDS011;6039;52.576;13.348;2023-06-14T14:44:35;5.15;;;3.08;;
11957;SDS011;6039;52.576;13.348;2023-06-14T14:49:39;4.35;;;2.83;;
11957;SDS011;6039;52.576;13.348;2023-06-14T14:54:46;5.10;;;2.42;;
11957;SDS011;6039;52.576;13.348;2023-06-14T14:59:50;4.80;;;2.40;;
11957;SDS011;6039;52.576;13.348;2023-06-14T15:04:54;2.70;;;2.50;;
11957;SDS011;6039;52.576;13.348;2023-06-14T15:10:05;4.35;;;2.42;;
11957;SDS011;6039;52.576;13.348;2023-06-14T15:15:10;2.50;;;2.30;;
11957;SDS011;6039;52.576;13.348;2023-06-14T15:20:14;3.90;;;2.60;;
11957;SDS011;6039;52.576;13.348;2023-06-14T15:25:21;5.32;;;2.85;;
11957;SDS011;6039;52.576;13.348;2023-06-14T15:30:25;3.85;;;2.58;;
11957;SDS011;6039;52.576;13.348;2023-06-14T15:35:29;2.60;;;2.40;;
11957;SDS011;6039;52.576;13.348;2023-06-14T15:40:35;3.47;;;2.50;;
11957;SDS011;6039;52.576;13.348;2023-06-14T15:45:39;3.07;;;2.73;;
11957;SDS011;6039;52.576;13.348;2023-06-14T15:50:43;5.97;;;2.67;;
11957;SDS011;6039;52.576;13.348;2023-06-14T15:55:50;4.97;;;2.70;;
11957;SDS011;6039;52.576;13.348;2023-06-14T16:00:54;2.97;;;2.17;;
11957;SDS011;6039;52.576;13.348;2023-06-14T16:05:58;2.93;;;2.57;;
11957;SDS011;6039;52.576;13.348;2023-06-14T16:11:04;3.28;;;2.70;;
11957;SDS011;6039;52.576;13.348;2023-06-14T16:16:08;3.42;;;2.38;;
11957;SDS011;6039;52.576;13.348;2023-06-14T16:21:12;7.57;;;2.60;;
11957;SDS011;6039;52.576;13.348;2023-06-14T16:26:19;3.37;;;2.60;;
11957;SDS011;6039;52.576;13.348;2023-06-14T16:31:23;3.90;;;3.00;;
11957;SDS011;6039;52.576;13.348;2023-06-14T16:36:27;5.35;;;2.80;;
11957;SDS011;6039;52.576;13.348;2023-06-14T16:41:34;4.13;;;2.50;;
11957;SDS011;6039;52.576;13.348;2023-06-14T16:46:37;4.33;;;2.43;;
11957;SDS011;6039;52.576;13.348;2023-06-14T16:51:41;3.37;;;2.60;;
11957;SDS011;6039;52.576;13.348;2023-06-14T16:56:48;2.80;;;2.40;;
11957;SDS011;6039;52.576;13.348;2023-06-14T17:01:52;3.23;;;2.53;;
11957;SDS011;6039;52.576;13.348;2023-06-14T17:07:03;6.27;;;2.77;;
11957;SDS011;6039;52.576;13.348;2023-06-14T17:12:09;5.77;;;2.90;;
11957;SDS011;6039;52.576;13.348;2023-06-14T17:17:13;3.90;;;2.90;;
11957;SDS011;6039;52.576;13.348;2023-06-14T17:22:17;3.33;;;2.70;;
11957;SDS011;6039;52.576;13.348;2023-06-14T17:27:24;3.90;;;2.30;;
11957;SDS011;6039;52.576;13.348;2023-06-14T17:32:28;4.13;;;2.47;;
11957;SDS011;6039;52.576;13.348;2023-06-14T17:37:32;3.50;;;2.70;;
11957;SDS011;6039;52.576;13.348;2023-06-14T17:42:39;4.23;;;2.60;;
11957;SDS011;6039;52.576;13.348;2023-06-14T17:47:43;3.87;;;2.77;;
11957;SDS011;6039;52.576;13.348;2023-06-14T17:52:47;2.57;;;2.20;;
11957;SDS011;6039;52.576;13.348;2023-06-14T17:57:53;3.43;;;2.50;;
11957;SDS011;6039;52.576;13.348;2023-06-14T18:02:57;7.03;;;2.57;;
11957;SDS011;6039;52.576;13.348;2023-06-14T18:08:02;5.87;;;2.50;;
11957;SDS011;6039;52.576;13.348;2023-06-14T18:13:09;5.50;;;2.83;;
11957;SDS011;6039;52.576;13.348;2023-06-14T18:18:13;3.67;;;2.73;;
11957;SDS011;6039;52.576;13.348;2023-06-14T18:23:17;3.03;;;2.60;;
11957;SDS011;6039;52.576;13.348;2023-06-14T18:28:23;3.07;;;2.40;;
11957;SDS011;6039;52.576;13.348;2023-06-14T18:33:27;3.90;;;2.63;;
11957;SDS011;6039;52.576;13.348;2023-06-14T18:38:31;2.90;;;2.57;;
11957;SDS011;6039;52.576;13.348;2023-06-14T18:43:39;3.03;;;2.40;;
11957;SDS011;6039;52.576;13.348;2023-06-14T18:48:43;3.73;;;2.83;;
11957;SDS011;6039;52.576;13.348;2023-06-14T18:53:47;2.93;;;2.53;;
11957;SDS011;6039;52.576;13.348;2023-06-14T18:58:53;5.03;;;2.60;;
11957;SDS011;6039;52.576;13.348;2023-06-14T19:03:57;4.20;;;2.87;;
11957;SDS011;6039;52.576;13.348;2023-06-14T19:09:01;4.30;;;2.80;;
11957;SDS011;6039;52.576;13.348;2023-06-14T19:14:08;3.03;;;2.37;;
11957;SDS011;6039;52.576;13.348;2023-06-14T19:19:12;4.23;;;2.57;;
11957;SDS011;6039;52.576;13.348;2023-06-14T19:24:17;4.37;;;2.60;;
11957;SDS011;6039;52.576;13.348;2023-06-14T19:29:23;7.40;;;2.60;;
11957;SDS011;6039;52.576;13.348;2023-06-14T19:34:30;3.40;;;2.63;;
11957;SDS011;6039;52.576;13.348;2023-06-14T19:39:34;3.27;;;2.70;;
11957;SDS011;6039;52.576;13.348;2023-06-14T19:44:40;3.27;;;2.70;;
11957;SDS011;6039;52.576;13.348;2023-06-14T19:49:44;3.03;;;2.60;;
11957;SDS011;6039;52.576;13.348;2023-06-14T19:54:48;5.03;;;2.90;;
11957;SDS011;6039;52.576;13.348;2023-06-14T19:59:55;4.97;;;2.70;;
11957;SDS011;6039;52.576;13.348;2023-06-14T20:04:59;3.50;;;2.67;;
11957;SDS011;6039;52.576;13.348;2023-06-14T20:10:03;2.70;;;2.37;;
11957;SDS011;6039;52.576;13.348;2023-06-14T20:15:12;3.83;;;2.63;;
11957;SDS011;6039;52.576;13.348;2023-06-14T20:20:16;7.07;;;3.00;;
11957;SDS011;6039;52.576;13.348;2023-06-14T20:25:20;5.97;;;2.97;;
11957;SDS011;6039;52.576;13.348;2023-06-14T20:30:27;4.67;;;2.93;;
11957;SDS011;6039;52.576;13.348;2023-06-14T20:35:31;3.00;;;2.43;;
11957;SDS011;6039;52.576;13.348;2023-06-14T20:40:35;4.07;;;2.43;;
11957;SDS011;6039;52.576;13.348;2023-06-14T20:45:42;3.80;;;2.60;;
11957;SDS011;6039;52.576;13.348;2023-06-14T20:50:46;4.27;;;2.60;;
11957;SDS011;6039;52.576;13.348;2023-06-14T20:55:50;2.87;;;2.43;;
11957;SDS011;6039;52.576;13.348;2023-06-14T21:00:57;3.87;;;2.47;;
11957;SDS011;6039;52.576;13.348;2023-06-14T21:06:02;3.10;;;2.53;;
11957;SDS011;6039;52.576;13.348;2023-06-14T21:11:09;5.13;;;2.80;;
11957;SDS011;6039;52.576;13.348;2023-06-14T21:16:16;7.10;;;2.73;;
11957;SDS011;6039;52.576;13.348;2023-06-14T21:21:20;3.33;;;2.70;;
11957;SDS011;6039;52.576;13.348;2023-06-14T21:26:25;5.20;;;2.70;;
11957;SDS011;6039;52.576;13.348;2023-06-14T21:31:32;3.40;;;2.50;;
11957;SDS011;6039;52.576;13.348;2023-06-14T21:36:36;3.53;;;2.70;;
11957;SDS011;6039;52.576;13.348;2023-06-14T21:41:41;3.87;;;2.57;;
11957;SDS011;6039;52.576;13.348;2023-06-14T21:46:48;3.20;;;2.47;;
11957;SDS011;6039;52.576;13.348;2023-06-14T21:51:52;3.17;;;2.60;;
11957;SDS011;6039;52.576;13.348;2023-06-14T21:56:56;4.27;;;2.80;;
11957;SDS011;6039;52.576;13.348;2023-06-14T22:02:03;5.83;;;2.70;;
11957;SDS011;6039;52.576;13.348;2023-06-14T22:07:07;3.70;;;2.77;;
11957;SDS011;6039;52.576;13.348;2023-06-14T22:12:11;2.93;;;2.20;;
11957;SDS011;6039;52.576;13.348;2023-06-14T22:17:19;4.57;;;2.40;;
11957;SDS011;6039;52.576;13.348;2023-06-14T22:22:29;3.67;;;2.60;;
11957;SDS011;6039;52.576;13.348;2023-06-14T22:27:37;3.33;;;2.60;;
11957;SDS011;6039;52.576;13.348;2023-06-14T22:32:47;2.67;;;2.23;;
11957;SDS011;6039;52.576;13.348;2023-06-14T22:37:53;3.33;;;2.97;;
11957;SDS011;6039;52.576;13.348;2023-06-14T22:42:57;4.50;;;2.37;;
11957;SDS011;6039;52.576;13.348;2023-06-14T22:48:04;5.87;;;3.17;;
11957;SDS011;6039;52.576;13.348;2023-06-14T22:53:08;3.60;;;2.73;;
11957;SDS011;6039;52.576;13.348;2023-06-14T22:58:12;4.40;;;2.97;;
11957;SDS011;6039;52.576;13.348;2023-06-14T23:03:20;6.50;;;2.63;;
11957;SDS011;6039;52.576;13.348;2023-06-14T23:08:24;3.50;;;2.70;;
11957;SDS011;6039;52.576;13.348;2023-06-14T23:13:28;3.87;;;2.30;;
11957;SDS011;6039;52.576;13.348;2023-06-14T23:18:35;4.03;;;2.80;;
11957;SDS011;6039;52.576;13.348;2023-06-14T23:23:39;3.03;;;2.40;;
11957;SDS011;6039;52.576;13.348;2023-06-14T23:28:47;3.93;;;2.50;;
11957;SDS011;6039;52.576;13.348;2023-06-14T23:33:56;3.80;;;2.40;;
11957;SDS011;6039;52.576;13.348;2023-06-14T23:39:01;3.23;;;2.50;;
11957;SDS011;6039;52.576;13.348;2023-06-14T23:44:06;3.83;;;2.50;;
11957;SDS011;6039;52.576;13.348;2023-06-14T23:49:12;4.30;;;2.60;;
11957;SDS011;6039;52.576;13.348;2023-06-14T23:54:17;3.20;;;2.50;;
11957;SDS011;6039;52.576;13.348;2023-06-14T23:59:21;4.70;;;3.20;;
